Leavenworth, WA (98826)

10:51 AM PST on December 20, 2014 (GMT -0800)
HADS NASON CREEK NEAR MOUTH NEAR PLAI WA US WADOECO | Change Station
CLOSE
Current Station
Personal Weather Station
Location: Leavenworth, WA
Elevation: 1879 ft
Nearby Weather Stations
Active Advisory: Winter Weather Advisory

Elev 1879 ft 47.80 °N, 120.72 °W | Updated 3 hours ago

Ice Pellets
Ice Pellets
32 °F
Feels Like 32 °F
N
Wind Variable Wind from North
Gusts 0.0 mph

Today
High -- | Low -- °F
--% Chance of Precip.
Yesterday
High -- | Low -- °F
Precip. -- in
7:47 AM 4:13 PM
Waning Crescent, 2% visible
Pressure 29.81 in
Visibility 6.0 miles
Clouds Overcast 500 ft
Windchill 32 °F
Dew Point Not available.
Humidity Not available.
Rainfall -999.00 in
Snow Depth Not available.
UV 0 out of 12
Pollen .50 out of 12
Air Quality Not available.
Flu Activity Not available.
METAR KEAT 201755Z AUTO 30006KT 6SM -RA BR OVC005 02/01 A2978 RMK AO2 RAE08B32UPB08E17SNB17E32 SLP093 P0001 60011 T00170006 10022 20017 56013

More Conditions Fewer Conditions

Pressure 29.81 in
Visibility 6.0 miles
Clouds Overcast 500 ft
Windchill 32 °F
Dew Point Not available.
Humidity Not available.
Rainfall -999.00 in
Snow Depth Not available.
UV 0 out of 12
Pollen .50 out of 12
Air Quality Not available.
Flu Activity Not available.
METAR KEAT 201755Z AUTO 30006KT 6SM -RA BR OVC005 02/01 A2978 RMK AO2 RAE08B32UPB08E17SNB17E32 SLP093 P0001 60011 T00170006 10022 20017 56013

More Conditions Fewer Conditions

10-Day Weather Forecast

Almanac

Astronomy

Dec. 20, 2014 Rise Set
Actual Time
Civil Twilight
Nautical Twilight
Astronomical Twilight
Moon
Length of Visible Light
Length of Day
Tomorrow will be .
, % of the Moon is Illuminated

Today's Extremes

State Highs State Lows

Community

WunderPhotos

Upload Photos

1,779,244 photos uploaded!

WunderBlogs® & News

Nearby

Air Quality

  Air Quality AQ Index Pollutant
Not available.

Snow Depth

Station Depth Elevation

Earthquake Activity

City Distance Mag. Time & Date
Minimum magnitude displayed is 2.5.

Coastal Water Temperatures

Place Temperature

Nearby Weather Stations